Time;durP1;ratioP1;P1;durP2;ratioP2;P2;SDS_P1;SDS_P2;PMS_P1;PMS_P2;Temp;Humidity;BMP_temperature;BMP_pressure;BME280_temperature;BME280_humidity;BME280_pressure;Samples;Min_cycle;Max_cycle;Signal;HPM_P1;HPM_P2
2023/03/07 00:00:32;;;;;;;16.33;7.82;;;2.80;98.40;;;;;;5109004;28;20034;-63
2023/03/07 00:02:58;;;;;;;15.45;8.23;;;2.70;98.50;;;;;;5096801;28;20038;-64
2023/03/07 00:05:23;;;;;;;12.50;6.80;;;2.80;98.60;;;;;;5113745;28;20114;-64
2023/03/07 00:07:49;;;;;;;11.45;6.88;;;2.80;98.60;;;;;;5099195;28;20054;-64
2023/03/07 00:10:15;;;;;;;11.40;6.85;;;2.80;98.60;;;;;;5100655;28;20032;-64
2023/03/07 00:12:40;;;;;;;12.18;7.15;;;2.80;98.50;;;;;;5102313;28;20028;-65
2023/03/07 00:15:06;;;;;;;11.95;7.07;;;2.80;98.60;;;;;;5101611;28;20032;-63
2023/03/07 00:17:35;;;;;;;10.20;6.57;;;2.80;98.60;;;;;;5100821;28;20024;-64
2023/03/07 00:20:01;;;;;;;11.60;7.25;;;2.80;98.70;;;;;;5110747;28;20501;-64
2023/03/07 00:22:26;;;;;;;12.52;7.70;;;2.80;98.60;;;;;;5099682;28;20040;-63
2023/03/07 00:24:52;;;;;;;12.75;7.93;;;2.80;98.60;;;;;;5079009;28;20041;-63
2023/03/07 00:27:18;;;;;;;13.77;7.78;;;2.80;98.70;;;;;;5097073;28;20117;-64
2023/03/07 00:29:43;;;;;;;12.82;7.88;;;2.80;98.70;;;;;;5110257;28;20046;-64
2023/03/07 00:32:09;;;;;;;12.32;7.05;;;2.80;98.70;;;;;;5102518;28;20475;-64
2023/03/07 00:34:34;;;;;;;17.05;8.50;;;2.80;98.70;;;;;;5109649;28;20024;-64
2023/03/07 00:37:00;;;;;;;12.68;7.20;;;2.80;98.80;;;;;;5104366;28;20024;-64
2023/03/07 00:39:26;;;;;;;14.25;8.30;;;2.70;98.80;;;;;;5107682;28;20024;-65
2023/03/07 00:41:51;;;;;;;14.07;8.50;;;2.80;98.90;;;;;;5099152;28;20055;-64
2023/03/07 00:44:17;;;;;;;13.00;8.18;;;2.80;98.90;;;;;;5104760;28;20050;-64
2023/03/07 00:46:42;;;;;;;13.30;7.78;;;2.80;98.90;;;;;;5101154;28;20031;-64
2023/03/07 00:49:08;;;;;;;13.75;8.57;;;2.80;98.90;;;;;;5106558;28;20053;-64
2023/03/07 00:51:33;;;;;;;14.27;8.63;;;2.80;98.90;;;;;;5105599;28;20562;-64
2023/03/07 00:53:59;;;;;;;14.90;8.80;;;2.80;98.90;;;;;;5096788;28;20031;-64
2023/03/07 00:56:25;;;;;;;14.30;8.38;;;2.80;99.00;;;;;;5103729;28;20032;-66
2023/03/07 00:58:51;;;;;;;14.32;9.07;;;2.80;99.20;;;;;;5082958;28;20046;-66
2023/03/07 01:01:20;;;;;;;12.77;7.97;;;2.80;99.00;;;;;;5106857;28;20024;-66
2023/03/07 01:03:51;;;;;;;13.18;8.00;;;2.80;99.00;;;;;;5096814;28;20049;-66
2023/03/07 01:06:20;;;;;;;11.10;7.25;;;2.80;99.00;;;;;;5099702;28;20044;-65
2023/03/07 01:08:45;;;;;;;12.43;7.85;;;2.80;99.00;;;;;;5095858;28;20024;-67
2023/03/07 01:11:12;;;;;;;10.70;7.20;;;2.80;99.00;;;;;;5094427;28;20119;-67
2023/03/07 01:13:38;;;;;;;12.55;7.97;;;2.80;99.00;;;;;;5090124;28;20605;-66
2023/03/07 01:16:24;;;;;;;11.02;7.20;;;2.80;99.00;;;;;;5094376;28;20498;-67
2023/03/07 01:18:56;;;;;;;12.35;7.45;;;2.80;99.10;;;;;;5091933;28;20076;-67
2023/03/07 01:21:37;;;;;;;12.13;7.25;;;2.70;99.00;;;;;;5094018;28;20038;-67
2023/03/07 01:24:06;;;;;;;10.73;7.72;;;2.70;99.10;;;;;;5098173;28;20028;-67
2023/03/07 01:26:33;;;;;;;12.30;7.78;;;2.70;99.10;;;;;;5105029;28;20040;-68
2023/03/07 01:29:01;;;;;;;12.88;8.18;;;2.70;99.20;;;;;;5103435;28;20020;-67
2023/03/07 01:31:29;;;;;;;12.60;8.20;;;2.80;99.20;;;;;;5092869;28;20028;-67
2023/03/07 01:33:54;;;;;;;12.13;7.82;;;2.80;99.20;;;;;;5071432;28;20025;-67
2023/03/07 01:36:27;;;;;;;13.07;8.02;;;2.80;99.20;;;;;;5097073;28;20141;-67
2023/03/07 01:39:16;;;;;;;13.15;8.73;;;2.80;99.30;;;;;;5109559;28;20032;-67
2023/03/07 01:41:43;;;;;;;14.65;9.13;;;2.80;99.30;;;;;;5089305;28;20035;-67
2023/03/07 01:44:15;;;;;;;14.23;8.32;;;2.90;99.30;;;;;;5104374;28;20032;-67
2023/03/07 01:46:48;;;;;;;14.68;9.20;;;2.90;99.30;;;;;;5088618;28;20023;-67
2023/03/07 01:49:21;;;;;;;15.77;9.50;;;2.90;99.30;;;;;;5085521;28;20031;-67
2023/03/07 01:52:07;;;;;;;12.95;8.90;;;2.90;99.30;;;;;;5099676;28;20475;-68
2023/03/07 01:54:37;;;;;;;13.40;9.02;;;2.80;99.30;;;;;;5106470;28;20486;-67
2023/03/07 01:57:03;;;;;;;15.15;9.55;;;2.80;99.30;;;;;;5108281;28;20042;-67
2023/03/07 01:59:31;;;;;;;14.02;9.00;;;2.90;99.40;;;;;;5108565;28;20043;-67
2023/03/07 02:02:02;;;;;;;16.20;10.13;;;2.90;99.40;;;;;;5093069;28;20048;-68
2023/03/07 02:04:35;;;;;;;16.60;10.00;;;2.90;99.40;;;;;;5088353;28;20024;-68
2023/03/07 02:07:02;;;;;;;17.88;10.40;;;2.90;99.50;;;;;;5105124;28;20071;-67
2023/03/07 02:09:31;;;;;;;17.20;10.75;;;2.90;99.50;;;;;;5112262;28;20382;-67
2023/03/07 02:11:59;;;;;;;16.60;9.73;;;2.90;99.60;;;;;;5108183;28;20577;-68
2023/03/07 02:14:25;;;;;;;16.35;10.25;;;3.00;99.60;;;;;;5111978;28;20114;-68
2023/03/07 02:16:52;;;;;;;18.83;12.18;;;3.00;99.60;;;;;;5101328;28;20115;-68
2023/03/07 02:19:20;;;;;;;16.05;9.82;;;3.00;99.70;;;;;;5090083;28;20119;-68
2023/03/07 02:22:09;;;;;;;19.25;11.60;;;3.00;99.70;;;;;;5098552;28;20017;-68
2023/03/07 02:24:50;;;;;;;19.13;12.18;;;3.00;99.70;;;;;;5080747;28;20077;-67
2023/03/07 02:27:15;;;;;;;17.80;12.05;;;3.00;99.70;;;;;;5100693;28;20038;-68
2023/03/07 02:29:41;;;;;;;23.75;13.50;;;3.00;99.70;;;;;;5099312;28;20035;-67
2023/03/07 02:32:07;;;;;;;20.27;12.68;;;3.00;99.80;;;;;;5098249;28;20059;-67
2023/03/07 02:34:33;;;;;;;20.52;12.68;;;3.00;99.80;;;;;;5094780;28;20103;-68
2023/03/07 02:37:16;;;;;;;20.30;12.05;;;3.10;99.90;;;;;;5107052;28;20024;-68
2023/03/07 02:39:44;;;;;;;20.92;13.65;;;3.10;99.90;;;;;;5084445;28;20092;-67
2023/03/07 02:42:15;;;;;;;22.75;13.95;;;3.20;99.90;;;;;;5106678;28;20486;-67
2023/03/07 02:44:44;;;;;;;22.40;13.95;;;3.10;99.90;;;;;;5101164;28;20031;-67
2023/03/07 02:47:10;;;;;;;20.77;12.45;;;3.20;99.90;;;;;;5101093;28;20464;-67
2023/03/07 02:49:35;;;;;;;21.20;13.60;;;3.20;99.90;;;;;;5092239;28;20119;-67
2023/03/07 02:52:02;;;;;;;21.58;13.60;;;3.20;99.90;;;;;;5097693;28;20498;-67
2023/03/07 02:54:28;;;;;;;23.52;14.35;;;3.30;99.90;;;;;;5098607;28;20036;-67
2023/03/07 02:56:54;;;;;;;24.45;15.52;;;3.30;99.90;;;;;;5104741;28;20038;-67
2023/03/07 02:59:20;;;;;;;28.38;15.20;;;3.30;99.90;;;;;;5094797;28;20040;-67
2023/03/07 03:01:45;;;;;;;23.83;13.73;;;3.20;99.90;;;;;;5101259;28;20031;-67
2023/03/07 03:04:11;;;;;;;22.13;12.75;;;3.30;99.90;;;;;;5109945;28;20027;-66
2023/03/07 03:06:37;;;;;;;22.65;14.65;;;3.30;99.90;;;;;;5104194;27;20123;-65
2023/03/07 03:09:02;;;;;;;21.45;13.65;;;3.40;99.90;;;;;;5112156;28;20027;-66
2023/03/07 03:11:28;;;;;;;22.80;13.55;;;3.40;99.90;;;;;;5109211;28;20066;-66
2023/03/07 03:13:53;;;;;;;21.48;13.38;;;3.40;99.90;;;;;;5091060;28;20432;-67
2023/03/07 03:16:19;;;;;;;27.05;14.55;;;3.40;99.90;;;;;;5083052;28;20032;-67
2023/03/07 03:18:45;;;;;;;23.42;13.90;;;3.40;99.90;;;;;;5097419;28;20519;-67
2023/03/07 03:21:13;;;;;;;24.77;14.25;;;3.40;99.90;;;;;;5090301;28;20395;-64
2023/03/07 03:23:39;;;;;;;26.70;15.38;;;3.40;99.90;;;;;;5090404;28;20107;-63
2023/03/07 03:26:07;;;;;;;23.25;14.45;;;3.40;99.90;;;;;;5090666;28;20032;-63
2023/03/07 03:28:36;;;;;;;25.08;15.13;;;3.40;99.90;;;;;;5099736;28;20027;-63
2023/03/07 03:31:08;;;;;;;26.98;15.88;;;3.40;99.90;;;;;;5091572;28;20077;-64
2023/03/07 03:33:34;;;;;;;23.40;14.35;;;3.40;99.90;;;;;;5101393;28;20106;-64
2023/03/07 03:36:06;;;;;;;23.48;14.27;;;3.40;99.90;;;;;;5099926;28;20195;-64
2023/03/07 03:38:32;;;;;;;26.23;15.30;;;3.40;99.90;;;;;;5106826;28;20031;-64
2023/03/07 03:40:58;;;;;;;24.58;14.77;;;3.40;99.90;;;;;;5096868;28;20077;-64
2023/03/07 03:43:23;;;;;;;25.77;15.93;;;3.40;99.90;;;;;;5099557;28;20157;-65
2023/03/07 03:45:56;;;;;;;24.58;15.85;;;3.40;99.90;;;;;;5105009;28;20102;-64
2023/03/07 03:48:22;;;;;;;24.48;15.75;;;3.40;99.90;;;;;;5095998;28;20029;-64
2023/03/07 03:50:47;;;;;;;27.13;16.52;;;3.40;99.90;;;;;;5101019;28;20028;-64
2023/03/07 03:53:13;;;;;;;25.08;14.52;;;3.40;99.90;;;;;;5094635;28;20027;-64
2023/03/07 03:55:39;;;;;;;26.95;15.38;;;3.40;99.90;;;;;;5102277;28;20493;-64
2023/03/07 03:58:04;;;;;;;29.50;15.38;;;3.40;99.90;;;;;;5097316;28;20434;-64
2023/03/07 04:00:30;;;;;;;26.15;15.00;;;3.40;99.90;;;;;;5098986;28;20077;-65
2023/03/07 04:02:56;;;;;;;25.70;15.98;;;3.40;99.90;;;;;;5095109;28;20028;-64
2023/03/07 04:05:22;;;;;;;25.30;14.88;;;3.40;99.90;;;;;;5098858;28;20049;-64
2023/03/07 04:07:48;;;;;;;26.30;14.70;;;3.40;99.90;;;;;;5098814;28;20120;-64
2023/03/07 04:10:14;;;;;;;25.95;14.18;;;3.40;99.90;;;;;;5092076;28;20099;-64
2023/03/07 04:12:40;;;;;;;27.75;16.05;;;3.50;99.90;;;;;;5097662;28;20430;-64
2023/03/07 04:15:06;;;;;;;25.13;15.68;;;3.50;99.90;;;;;;5099119;28;20130;-64
2023/03/07 04:17:32;;;;;;;23.90;14.70;;;3.50;99.90;;;;;;5103059;28;20024;-64
2023/03/07 04:19:58;;;;;;;31.10;16.50;;;3.50;99.90;;;;;;5107028;28;20028;-64
2023/03/07 04:22:24;;;;;;;25.77;14.55;;;3.50;99.90;;;;;;5102749;28;20085;-64
2023/03/07 04:24:50;;;;;;;26.55;15.48;;;3.50;99.90;;;;;;5103327;28;20039;-64
2023/03/07 04:27:16;;;;;;;26.15;15.20;;;3.50;99.90;;;;;;5099561;28;20115;-63
2023/03/07 04:29:42;;;;;;;26.15;15.43;;;3.50;99.90;;;;;;5095388;28;20055;-64
2023/03/07 04:32:07;;;;;;;25.52;14.40;;;3.60;99.90;;;;;;5095220;28;20051;-63
2023/03/07 04:34:33;;;;;;;24.75;15.32;;;3.60;99.90;;;;;;5112677;28;20027;-63
2023/03/07 04:36:59;;;;;;;27.45;15.68;;;3.70;99.90;;;;;;5105430;28;20375;-64
2023/03/07 04:39:24;;;;;;;24.90;16.05;;;3.70;99.90;;;;;;5114973;28;20467;-64
2023/03/07 04:41:50;;;;;;;26.95;15.23;;;3.70;99.90;;;;;;5099112;28;20509;-64
2023/03/07 04:44:16;;;;;;;28.77;16.60;;;3.80;99.90;;;;;;5093555;28;20032;-64
2023/03/07 04:46:41;;;;;;;25.55;14.55;;;3.80;99.90;;;;;;5094643;28;20075;-64
2023/03/07 04:49:07;;;;;;;26.08;14.98;;;3.80;99.90;;;;;;5109096;28;20015;-63
2023/03/07 04:51:33;;;;;;;24.45;13.82;;;3.90;99.90;;;;;;5097985;28;20040;-63
2023/03/07 04:53:58;;;;;;;23.70;13.70;;;3.90;99.90;;;;;;5108543;28;20475;-63
2023/03/07 04:56:24;;;;;;;24.67;15.32;;;4.00;99.90;;;;;;5097161;28;20424;-63
2023/03/07 04:58:50;;;;;;;24.88;14.25;;;3.90;99.90;;;;;;5108871;28;20510;-63
2023/03/07 05:01:16;;;;;;;23.83;14.48;;;3.90;99.90;;;;;;5098863;28;20089;-63
2023/03/07 05:03:41;;;;;;;23.65;14.20;;;4.00;99.90;;;;;;5105403;28;20047;-63
2023/03/07 05:06:12;;;;;;;27.65;15.98;;;3.90;99.90;;;;;;5104738;28;20443;-63
2023/03/07 05:08:38;;;;;;;26.20;14.57;;;3.90;99.90;;;;;;5080916;28;20028;-63
2023/03/07 05:11:04;;;;;;;26.30;14.57;;;3.90;99.90;;;;;;5106106;28;20040;-63
2023/03/07 05:13:29;;;;;;;25.58;14.07;;;3.90;99.90;;;;;;5111963;28;20058;-62
2023/03/07 05:15:56;;;;;;;25.60;14.23;;;3.90;99.90;;;;;;5103329;28;20439;-62
2023/03/07 05:18:22;;;;;;;22.90;14.15;;;3.90;99.90;;;;;;5105400;28;20081;-62
2023/03/07 05:20:49;;;;;;;21.90;12.63;;;3.80;99.90;;;;;;5106943;28;20033;-63
2023/03/07 05:23:15;;;;;;;21.23;12.98;;;3.80;99.90;;;;;;5109242;28;20023;-63
2023/03/07 05:25:41;;;;;;;24.55;15.05;;;3.80;99.90;;;;;;5092160;28;20441;-63
2023/03/07 05:28:07;;;;;;;24.80;13.68;;;3.80;99.90;;;;;;5099436;28;20024;-62
2023/03/07 05:30:33;;;;;;;24.30;14.43;;;3.80;99.90;;;;;;5106187;28;20484;-62
2023/03/07 05:32:58;;;;;;;21.27;13.52;;;3.80;99.90;;;;;;5108953;28;20046;-61
2023/03/07 05:35:24;;;;;;;21.42;12.95;;;3.80;99.90;;;;;;5103677;28;20111;-63
2023/03/07 05:37:51;;;;;;;23.15;14.07;;;3.80;99.90;;;;;;5098452;28;20027;-63
2023/03/07 05:40:17;;;;;;;21.25;14.05;;;3.90;99.90;;;;;;5102540;28;20036;-62
2023/03/07 05:42:43;;;;;;;23.00;13.82;;;3.90;99.90;;;;;;5097251;28;20364;-63
2023/03/07 05:45:10;;;;;;;22.40;13.43;;;3.90;99.90;;;;;;5101856;28;20035;-63
2023/03/07 05:47:37;;;;;;;23.20;13.88;;;3.90;99.90;;;;;;5094100;28;20026;-62
2023/03/07 05:50:04;;;;;;;19.88;13.32;;;3.90;99.90;;;;;;5097835;28;20024;-62
2023/03/07 05:52:29;;;;;;;21.60;13.05;;;4.00;99.90;;;;;;5103978;28;20466;-62
2023/03/07 05:54:55;;;;;;;20.88;13.07;;;4.00;99.90;;;;;;5081886;28;20020;-62
2023/03/07 05:57:21;;;;;;;20.55;12.07;;;4.00;99.90;;;;;;5088383;28;20071;-63
2023/03/07 05:59:47;;;;;;;21.40;13.13;;;4.00;99.90;;;;;;5091780;28;20077;-64
2023/03/07 06:02:12;;;;;;;24.52;14.32;;;4.00;99.90;;;;;;5102435;28;20031;-63
2023/03/07 06:04:38;;;;;;;23.33;13.38;;;4.00;99.90;;;;;;5093495;28;20043;-64
2023/03/07 06:07:04;;;;;;;20.58;12.48;;;4.00;99.90;;;;;;5092718;28;20047;-63
2023/03/07 06:09:29;;;;;;;24.73;14.57;;;4.10;99.90;;;;;;5099484;28;20032;-65
2023/03/07 06:11:55;;;;;;;20.95;12.30;;;4.00;99.90;;;;;;5093741;28;20074;-65
2023/03/07 06:14:21;;;;;;;20.00;12.60;;;4.10;99.90;;;;;;5097362;28;20036;-65
2023/03/07 06:16:46;;;;;;;20.05;12.20;;;4.10;99.90;;;;;;5108940;28;20031;-64
2023/03/07 06:19:12;;;;;;;21.00;13.15;;;4.10;99.90;;;;;;5095513;28;20069;-65
2023/03/07 06:21:38;;;;;;;21.35;13.07;;;4.20;99.90;;;;;;5075738;28;20487;-65
2023/03/07 06:24:06;;;;;;;22.73;13.55;;;4.20;99.90;;;;;;5090008;28;20024;-65
2023/03/07 06:26:31;;;;;;;20.35;11.68;;;4.20;99.90;;;;;;5102531;28;20499;-65
2023/03/07 06:28:57;;;;;;;20.90;13.23;;;4.30;99.90;;;;;;5093151;28;20027;-65
2023/03/07 06:31:23;;;;;;;19.98;13.77;;;4.20;99.90;;;;;;5092878;28;20033;-64
2023/03/07 06:33:50;;;;;;;21.20;12.82;;;4.30;99.90;;;;;;5098025;28;20443;-64
2023/03/07 06:36:17;;;;;;;18.55;12.25;;;4.30;99.90;;;;;;5091838;28;20043;-65
2023/03/07 06:38:43;;;;;;;18.60;11.98;;;4.30;99.90;;;;;;5097815;28;20425;-65
2023/03/07 06:41:09;;;;;;;18.45;11.50;;;4.40;99.90;;;;;;5105514;28;20017;-65
2023/03/07 06:43:35;;;;;;;20.30;12.65;;;4.40;99.90;;;;;;5096082;28;20027;-65
2023/03/07 06:46:01;;;;;;;19.65;12.60;;;4.40;99.90;;;;;;5088675;28;20077;-64
2023/03/07 06:48:26;;;;;;;19.67;12.80;;;4.50;99.90;;;;;;5094300;28;20472;-64
2023/03/07 06:50:52;;;;;;;21.65;12.05;;;4.50;99.90;;;;;;5108306;28;20035;-64
2023/03/07 06:53:18;;;;;;;19.30;12.55;;;4.60;99.90;;;;;;5097980;28;20115;-64
2023/03/07 06:55:50;;;;;;;19.42;13.15;;;4.50;99.90;;;;;;5110041;28;20555;-64
2023/03/07 06:58:17;;;;;;;18.92;12.50;;;4.60;99.90;;;;;;5095412;28;20067;-63
2023/03/07 07:00:43;;;;;;;19.83;12.57;;;4.60;99.90;;;;;;5099941;28;20028;-64
2023/03/07 07:03:13;;;;;;;20.33;12.88;;;4.60;99.90;;;;;;5086850;28;20036;-66
2023/03/07 07:05:39;;;;;;;15.93;10.43;;;4.70;99.90;;;;;;5080119;28;20039;-66
2023/03/07 07:08:04;;;;;;;19.45;12.25;;;4.70;99.90;;;;;;5092764;28;20413;-67
2023/03/07 07:10:30;;;;;;;20.33;12.65;;;4.70;99.90;;;;;;5098684;28;20023;-65
2023/03/07 07:12:56;;;;;;;17.58;12.07;;;4.80;99.90;;;;;;5084889;28;20028;-67
2023/03/07 07:15:23;;;;;;;20.40;11.93;;;4.80;99.90;;;;;;5093912;28;20040;-69
2023/03/07 07:17:50;;;;;;;18.35;11.65;;;4.90;99.90;;;;;;5094315;28;20032;-69
2023/03/07 07:20:16;;;;;;;17.95;11.52;;;4.90;99.90;;;;;;5088312;28;20478;-68
2023/03/07 07:22:41;;;;;;;22.48;12.23;;;4.90;99.90;;;;;;5091947;28;20039;-68
2023/03/07 07:25:08;;;;;;;20.48;13.25;;;4.90;99.90;;;;;;5090667;28;20032;-68
2023/03/07 07:27:35;;;;;;;17.05;10.95;;;4.90;99.90;;;;;;5095633;28;20031;-69
2023/03/07 07:30:01;;;;;;;20.77;12.77;;;5.00;99.90;;;;;;5105389;28;20440;-69
2023/03/07 07:32:27;;;;;;;17.70;11.15;;;5.00;99.90;;;;;;5088292;28;20523;-69
2023/03/07 07:34:53;;;;;;;21.88;12.77;;;5.00;99.90;;;;;;5109311;28;20126;-68
2023/03/07 07:37:18;;;;;;;19.33;12.55;;;5.10;99.90;;;;;;5094593;28;20157;-68
2023/03/07 07:39:44;;;;;;;17.92;11.48;;;5.20;99.90;;;;;;5092651;28;20028;-67
2023/03/07 07:42:11;;;;;;;19.52;11.68;;;5.30;99.90;;;;;;5091690;28;20020;-67
2023/03/07 07:44:37;;;;;;;19.33;11.65;;;5.30;99.90;;;;;;5090058;28;20509;-66
2023/03/07 07:47:02;;;;;;;22.45;12.18;;;5.30;99.90;;;;;;5098919;28;20110;-67
2023/03/07 07:49:28;;;;;;;18.58;12.25;;;5.40;99.90;;;;;;5099038;28;20024;-68
2023/03/07 07:51:54;;;;;;;19.35;11.52;;;5.50;99.90;;;;;;5091520;28;20024;-69
2023/03/07 07:54:20;;;;;;;18.30;12.27;;;5.50;99.90;;;;;;5094012;28;20032;-68
2023/03/07 07:56:45;;;;;;;15.93;11.10;;;5.50;99.90;;;;;;5096427;28;20564;-69
2023/03/07 07:59:11;;;;;;;19.42;11.40;;;5.50;99.90;;;;;;5094475;28;20036;-69
2023/03/07 08:01:37;;;;;;;19.25;11.02;;;5.60;99.90;;;;;;5099249;28;20054;-69
2023/03/07 08:04:03;;;;;;;17.65;10.55;;;5.60;99.90;;;;;;5113419;28;20506;-69
2023/03/07 08:06:29;;;;;;;17.63;11.38;;;5.60;99.90;;;;;;5104885;28;20080;-69
2023/03/07 08:08:55;;;;;;;17.92;10.63;;;5.60;99.90;;;;;;5113424;28;20028;-69
2023/03/07 08:11:22;;;;;;;17.85;10.75;;;5.70;99.90;;;;;;5102823;28;20077;-70
2023/03/07 08:13:48;;;;;;;20.77;11.27;;;5.70;99.90;;;;;;5085691;28;20025;-68
2023/03/07 08:16:17;;;;;;;21.30;11.32;;;5.70;99.90;;;;;;5104301;28;20024;-69
2023/03/07 08:18:51;;;;;;;18.13;11.00;;;5.70;99.90;;;;;;5088294;28;20028;-69
2023/03/07 08:21:17;;;;;;;16.20;10.13;;;5.70;99.90;;;;;;5098814;28;20081;-69
2023/03/07 08:23:42;;;;;;;17.77;10.68;;;5.70;99.90;;;;;;5097987;28;20429;-68
2023/03/07 08:26:09;;;;;;;19.35;11.55;;;5.80;99.90;;;;;;5108019;28;20040;-67
2023/03/07 08:28:36;;;;;;;16.27;11.02;;;5.80;99.90;;;;;;5089186;28;20055;-68
2023/03/07 08:31:10;;;;;;;16.52;10.35;;;5.80;99.90;;;;;;5099477;28;20544;-68
2023/03/07 08:33:36;;;;;;;14.67;9.47;;;5.80;99.90;;;;;;5109940;28;20024;-68
2023/03/07 08:36:02;;;;;;;16.27;10.35;;;5.80;99.90;;;;;;5112896;28;20032;-68
2023/03/07 08:38:28;;;;;;;17.67;10.63;;;5.80;99.90;;;;;;5108083;28;20522;-68
2023/03/07 08:40:53;;;;;;;16.70;10.05;;;5.90;99.90;;;;;;5113006;28;20058;-68
2023/03/07 08:43:19;;;;;;;16.65;9.98;;;5.90;99.90;;;;;;5112431;28;20421;-69
2023/03/07 08:45:44;;;;;;;15.23;9.50;;;6.00;99.90;;;;;;5112303;28;20101;-68
2023/03/07 08:48:10;;;;;;;16.15;9.45;;;6.10;99.90;;;;;;5109011;28;20019;-68
2023/03/07 08:50:38;;;;;;;15.50;9.98;;;6.10;99.90;;;;;;5098790;28;20086;-68
2023/03/07 08:53:03;;;;;;;16.98;10.88;;;6.20;99.90;;;;;;5101924;28;20030;-69
2023/03/07 08:55:29;;;;;;;15.10;9.43;;;6.30;99.90;;;;;;5111849;28;20518;-68
2023/03/07 08:57:54;;;;;;;16.90;10.23;;;6.40;99.90;;;;;;5089223;28;20040;-69
2023/03/07 09:00:20;;;;;;;14.98;9.95;;;6.40;99.90;;;;;;5110698;28;20114;-68
2023/03/07 09:02:46;;;;;;;13.45;8.82;;;6.40;99.90;;;;;;5104867;28;20035;-68
2023/03/07 09:05:11;;;;;;;14.98;9.60;;;6.50;99.90;;;;;;5107257;28;20038;-68
2023/03/07 09:07:37;;;;;;;14.23;8.68;;;6.60;99.90;;;;;;5095839;28;20027;-68
2023/03/07 09:10:04;;;;;;;14.40;8.80;;;6.70;99.90;;;;;;5099659;28;20019;-68
2023/03/07 09:12:31;;;;;;;12.93;8.38;;;6.80;99.90;;;;;;5097733;28;20032;-68
2023/03/07 09:14:56;;;;;;;14.00;9.00;;;6.90;99.90;;;;;;5101341;28;20054;-68
2023/03/07 09:17:22;;;;;;;14.27;9.25;;;7.00;99.90;;;;;;5098421;28;20411;-68
2023/03/07 09:19:49;;;;;;;13.40;9.10;;;7.00;99.90;;;;;;5105475;28;20046;-69
2023/03/07 09:22:15;;;;;;;13.57;9.15;;;7.00;99.90;;;;;;5110809;28;20062;-69
2023/03/07 09:24:41;;;;;;;12.57;7.75;;;7.10;99.90;;;;;;5109610;27;20059;-68
2023/03/07 09:27:06;;;;;;;13.25;9.00;;;7.10;99.90;;;;;;5106709;28;20049;-68
2023/03/07 09:29:32;;;;;;;13.30;9.18;;;7.20;99.80;;;;;;5101727;28;20363;-69
2023/03/07 09:31:57;;;;;;;11.65;7.85;;;7.20;99.70;;;;;;5097262;28;20168;-69
2023/03/07 09:34:23;;;;;;;14.93;8.90;;;7.20;99.50;;;;;;5107712;28;20388;-69
2023/03/07 09:36:51;;;;;;;13.85;8.98;;;7.20;99.50;;;;;;5103845;28;20108;-69
2023/03/07 09:39:17;;;;;;;11.77;8.13;;;7.30;99.50;;;;;;5071209;28;20044;-68
2023/03/07 09:41:52;;;;;;;12.02;8.07;;;7.30;99.50;;;;;;5100613;28;20115;-68
2023/03/07 09:44:18;;;;;;;;;;;7.30;99.40;;;;;;5094023;28;20441;-68
2023/03/07 09:47:30;;;;;;;10.63;7.05;;;7.40;99.50;;;;;;5090546;28;20010;-68
2023/03/07 09:49:59;;;;;;;9.48;6.63;;;7.40;99.40;;;;;;5000863;28;20033;-68
2023/03/07 09:52:28;;;;;;;11.40;7.25;;;7.40;99.40;;;;;;5024059;28;20034;-68
2023/03/07 09:55:02;;;;;;;12.63;7.80;;;7.50;99.30;;;;;;5063921;28;20039;-69
2023/03/07 09:57:38;;;;;;;11.27;6.88;;;7.50;99.20;;;;;;5102279;28;20051;-70
2023/03/07 10:00:18;;;;;;;10.20;6.63;;;7.60;99.20;;;;;;5092334;28;20032;-69
2023/03/07 10:02:51;;;;;;;9.73;6.75;;;7.60;99.10;;;;;;5098178;28;20391;-67
2023/03/07 10:05:49;;;;;;;10.18;6.57;;;7.70;99.10;;;;;;5108602;28;20456;-67
2023/03/07 10:08:19;;;;;;;7.68;5.55;;;7.70;99.00;;;;;;5078419;28;20475;-68
2023/03/07 10:10:55;;;;;;;8.77;5.93;;;7.80;98.90;;;;;;5097921;28;20063;-68
2023/03/07 10:13:44;;;;;;;8.20;6.10;;;7.80;98.80;;;;;;5105632;28;20024;-68
2023/03/07 10:16:35;;;;;;;8.13;5.93;;;7.80;98.70;;;;;;5062189;28;20063;-68
2023/03/07 10:19:16;;;;;;;8.82;6.18;;;7.90;98.70;;;;;;5090343;28;20020;-68
2023/03/07 10:21:56;;;;;;;8.13;5.47;;;7.90;98.60;;;;;;5092816;28;20031;-68
2023/03/07 10:24:50;;;;;;;8.70;5.75;;;7.90;98.60;;;;;;5096102;28;20031;-68
2023/03/07 10:27:17;;;;;;;9.30;5.65;;;8.00;98.50;;;;;;5094213;28;20507;-68
2023/03/07 10:29:53;;;;;;;8.10;5.38;;;8.00;98.50;;;;;;5094415;28;20027;-68
2023/03/07 10:32:27;;;;;;;7.20;5.38;;;8.00;98.40;;;;;;5095292;28;20040;-67
2023/03/07 10:35:03;;;;;;;8.10;5.07;;;8.10;98.50;;;;;;5101807;28;20016;-67
2023/03/07 10:38:04;;;;;;;6.90;4.70;;;8.10;98.40;;;;;;5101110;28;20032;-67
2023/03/07 10:41:24;;;;;;;6.78;4.53;;;8.00;98.30;;;;;;5095787;28;20346;-67
2023/03/07 10:43:52;;;;;;;7.10;4.95;;;8.10;98.30;;;;;;5027975;28;20033;-68
2023/03/07 10:46:23;;;;;;;7.53;5.28;;;8.00;98.20;;;;;;5011589;28;20049;-67
2023/03/07 10:48:59;;;;;;;8.48;5.30;;;8.00;98.30;;;;;;5056034;28;20568;-67
2023/03/07 10:51:54;;;;;;;7.15;4.57;;;8.00;98.20;;;;;;5103815;28;20431;-68
2023/03/07 10:54:26;;;;;;;7.05;4.13;;;7.90;98.00;;;;;;5102439;27;20038;-68
2023/03/07 10:57:15;;;;;;;7.10;4.45;;;7.80;98.00;;;;;;5106809;28;20040;-68
2023/03/07 10:59:43;;;;;;;5.65;4.00;;;7.70;98.00;;;;;;5102078;28;20078;-67
2023/03/07 11:02:55;;;;;;;7.35;5.07;;;7.60;98.00;;;;;;5110470;28;20482;-67
2023/03/07 11:05:36;;;;;;;6.97;4.40;;;7.60;98.20;;;;;;5096394;28;20166;-67
2023/03/07 11:08:33;;;;;;;7.60;4.93;;;7.50;98.20;;;;;;5096869;28;20027;-67
2023/03/07 11:11:01;;;;;;;6.90;4.22;;;7.50;98.30;;;;;;5095940;28;20153;-67
2023/03/07 11:13:27;;;;;;;6.15;4.28;;;7.50;98.30;;;;;;5099510;28;20032;-68
2023/03/07 11:16:22;;;;;;;5.35;3.70;;;7.50;98.40;;;;;;5106181;28;20470;-68
2023/03/07 11:18:47;;;;;;;6.85;3.90;;;7.50;98.70;;;;;;5096718;28;20567;-68
2023/03/07 11:21:50;;;;;;;5.75;3.35;;;7.60;98.40;;;;;;5097531;28;20047;-68
2023/03/07 11:24:27;;;;;;;4.53;2.72;;;7.60;98.20;;;;;;5093997;28;20431;-67
2023/03/07 11:26:55;;;;;;;4.72;2.90;;;7.50;98.00;;;;;;5110201;28;20070;-68
2023/03/07 11:29:21;;;;;;;4.68;2.60;;;7.50;97.90;;;;;;5098555;28;20028;-68
2023/03/07 11:31:55;;;;;;;4.15;2.63;;;7.50;97.80;;;;;;5099169;28;20544;-69
2023/03/07 11:34:31;;;;;;;3.55;2.38;;;7.50;97.70;;;;;;5087663;28;20040;-67
2023/03/07 11:37:08;;;;;;;3.80;2.28;;;7.50;97.70;;;;;;5102900;28;20070;-68
2023/03/07 11:39:43;;;;;;;4.10;2.25;;;7.50;97.60;;;;;;5108963;28;20028;-68
2023/03/07 11:42:21;;;;;;;3.33;2.10;;;7.50;97.50;;;;;;5109481;28;20062;-68
2023/03/07 11:44:53;;;;;;;4.18;2.17;;;7.50;97.30;;;;;;5095527;28;20034;-67
2023/03/07 11:47:51;;;;;;;4.22;2.38;;;7.40;97.40;;;;;;5106922;28;20518;-67
2023/03/07 11:50:22;;;;;;;4.30;2.38;;;7.40;97.40;;;;;;5103477;28;20361;-67
2023/03/07 11:53:27;;;;;;;5.78;2.28;;;7.40;97.30;;;;;;5092581;28;20093;-67
2023/03/07 11:56:20;;;;;;;4.13;2.05;;;7.40;97.20;;;;;;5096321;28;20495;-68
2023/03/07 11:59:16;;;;;;;5.40;2.70;;;7.40;97.20;;;;;;5105631;28;20484;-67
2023/03/07 12:01:44;;;;;;;3.70;2.25;;;7.40;97.10;;;;;;5098717;28;20118;-67
2023/03/07 12:04:45;;;;;;;3.67;2.35;;;7.40;97.10;;;;;;5102423;28;20549;-68
2023/03/07 12:07:29;;;;;;;3.40;2.38;;;7.40;97.10;;;;;;5106217;28;20032;-68
2023/03/07 12:09:57;;;;;;;2.95;1.90;;;7.40;97.10;;;;;;5101836;28;20076;-68
2023/03/07 12:12:33;;;;;;;4.03;2.40;;;7.30;97.10;;;;;;5106192;28;20028;-67
2023/03/07 12:15:17;;;;;;;4.70;2.05;;;7.40;97.10;;;;;;5110578;28;20498;-67
2023/03/07 12:18:18;;;;;;;4.93;2.00;;;7.40;97.10;;;;;;5097732;28;20032;-68
2023/03/07 12:21:17;;;;;;;5.03;2.55;;;7.30;97.00;;;;;;5095403;28;20427;-68
2023/03/07 12:23:51;;;;;;;3.05;2.00;;;7.40;97.10;;;;;;5095291;28;20387;-68
2023/03/07 12:26:27;;;;;;;3.75;2.67;;;7.30;97.00;;;;;;5093614;28;20582;-68
2023/03/07 12:29:19;;;;;;;3.00;2.05;;;7.30;97.00;;;;;;5109763;28;20391;-68
2023/03/07 12:31:50;;;;;;;4.30;1.98;;;7.30;97.30;;;;;;5092196;28;20032;-67
2023/03/07 12:34:30;;;;;;;2.25;1.75;;;7.30;97.10;;;;;;5102908;28;20411;-68
2023/03/07 12:37:07;;;;;;;5.10;2.30;;;7.20;97.10;;;;;;5101200;28;20023;-68
2023/03/07 12:39:50;;;;;;;3.42;2.13;;;7.20;97.10;;;;;;5099904;28;20028;-68
2023/03/07 12:42:29;;;;;;;3.60;2.20;;;7.10;97.10;;;;;;5094694;28;20039;-68
2023/03/07 12:45:09;;;;;;;2.85;2.10;;;7.10;97.20;;;;;;5077169;28;20028;-67
2023/03/07 12:47:52;;;;;;;2.97;1.67;;;7.10;97.30;;;;;;5106278;28;20028;-67
2023/03/07 12:50:44;;;;;;;2.70;1.70;;;7.00;97.30;;;;;;5110443;28;20352;-68
2023/03/07 12:53:21;;;;;;;2.85;1.65;;;7.00;97.30;;;;;;5092915;28;20039;-68
2023/03/07 12:55:52;;;;;;;2.78;1.60;;;7.00;97.40;;;;;;5108146;28;20024;-67
2023/03/07 12:58:33;;;;;;;3.30;2.05;;;7.00;97.70;;;;;;5097120;28;20108;-67